createdAt,value
2022-11-13T00:02:04.336Z,94105.78
2022-11-13T00:04:35.076Z,94096.38
2022-11-13T00:07:04.578Z,94096.31
2022-11-13T00:09:34.012Z,94102.44
2022-11-13T00:12:03.380Z,94105.94
2022-11-13T00:14:32.851Z,94105.78
2022-11-13T00:17:02.104Z,94100.75
2022-11-13T00:19:31.457Z,94095.59
2022-11-13T00:22:02.163Z,94100.78
2022-11-13T00:24:31.800Z,94099.03
2022-11-13T00:27:01.197Z,94090.34
2022-11-13T00:29:30.491Z,94095.53
2022-11-13T00:32:00.239Z,94099.91
2022-11-13T00:37:20.372Z,94100.75
2022-11-13T00:39:49.621Z,94095.53
2022-11-13T00:42:18.911Z,94094.63
2022-11-13T00:44:48.255Z,94091.09
2022-11-13T00:47:17.574Z,94086.72
2022-11-13T00:51:11.878Z,94089.34
2022-11-13T00:53:41.183Z,94092.84
2022-11-13T00:56:12.345Z,94094.63
2022-11-13T00:58:41.677Z,94088.56
2022-11-13T01:01:14.658Z,94087.72
2022-11-13T01:03:44.445Z,94095.59
2022-11-13T01:06:18.505Z,94090.56
2022-11-13T01:08:48.438Z,94094.22
2022-11-13T01:11:20.879Z,94086.75
2022-11-13T01:13:52.435Z,94091.59
2022-11-13T01:16:27.703Z,94091.03
2022-11-13T01:18:58.331Z,94092.09
2022-11-13T01:21:30.569Z,94093.97
2022-11-13T01:24:00.018Z,94093.47
2022-11-13T01:26:32.494Z,94093.56
2022-11-13T01:29:02.735Z,94097.25
2022-11-13T01:31:33.208Z,94100.13
2022-11-13T01:34:02.364Z,94096.81
2022-11-13T01:36:33.285Z,94104.78
2022-11-13T01:39:02.765Z,94101.31
2022-11-13T01:41:35.349Z,94102.22
2022-11-13T01:44:04.789Z,94091.09
2022-11-13T01:46:36.273Z,94095.47
2022-11-13T01:49:27.654Z,94098.97
2022-11-13T01:52:02.803Z,94088.78
2022-11-13T01:54:34.961Z,94086.19
2022-11-13T01:57:06.834Z,94089.75
2022-11-13T01:59:42.030Z,94092.63
2022-11-13T02:02:11.428Z,94090.94
2022-11-13T02:04:41.275Z,94090.22
2022-11-13T02:07:15.169Z,94093.94
2022-11-13T02:09:47.430Z,94087.03
2022-11-13T02:12:20.557Z,94082.88
2022-11-13T02:14:55.482Z,94090.16
2022-11-13T02:17:31.810Z,94094.13
2022-11-13T02:20:05.474Z,94091.28
2022-11-13T02:22:44.121Z,94099.38
2022-11-13T02:25:16.587Z,94093.53
2022-11-13T02:27:48.715Z,94090.47
2022-11-13T02:30:26.554Z,94090.84
2022-11-13T02:32:59.118Z,94095.56
2022-11-13T02:35:32.882Z,94099.31
2022-11-13T02:38:05.569Z,94101.34
2022-11-13T02:40:36.548Z,94100.97
2022-11-13T02:43:05.968Z,94104.00
2022-11-13T02:45:35.337Z,94106.03
2022-11-13T02:48:04.932Z,94106.31
2022-11-13T02:50:36.234Z,94105.50
2022-11-13T02:53:06.295Z,94102.38
2022-11-13T02:55:37.384Z,94101.81
2022-11-13T02:58:06.788Z,94102.19
2022-11-13T03:00:36.166Z,94107.59
2022-11-13T03:03:05.695Z,94102.63
2022-11-13T03:05:35.121Z,94096.25
2022-11-13T03:08:04.574Z,94099.94
2022-11-13T03:10:35.582Z,94100.91
2022-11-13T03:13:04.944Z,94102.97
2022-11-13T03:15:35.425Z,94102.09
2022-11-13T03:18:06.071Z,94099.66
2022-11-13T03:20:38.564Z,94096.19
2022-11-13T03:23:08.433Z,94092.72
2022-11-13T03:25:39.228Z,94087.81
2022-11-13T03:28:08.581Z,94090.50
2022-11-13T03:30:37.970Z,94086.06
2022-11-13T03:33:07.409Z,94092.31
2022-11-13T03:35:44.191Z,94088.00
2022-11-13T03:38:16.189Z,94088.22
2022-11-13T03:40:47.231Z,94084.78
2022-11-13T03:43:17.123Z,94091.88
2022-11-13T03:45:47.869Z,94089.53
2022-11-13T03:48:18.333Z,94085.50
2022-11-13T03:52:14.570Z,94078.97
2022-11-13T03:54:43.952Z,94082.38
2022-11-13T03:57:13.224Z,94079.03
2022-11-13T03:59:42.581Z,94085.28
2022-11-13T04:02:11.970Z,94084.38
2022-11-13T04:04:41.233Z,94077.75
2022-11-13T04:07:10.910Z,94081.19
2022-11-13T04:09:41.632Z,94088.72
2022-11-13T04:12:11.088Z,94083.38
2022-11-13T04:14:40.427Z,94087.66
2022-11-13T04:17:09.671Z,94086.56
2022-11-13T04:19:39.025Z,94089.78
2022-11-13T04:22:08.316Z,94091.47
2022-11-13T04:24:37.618Z,94090.59
2022-11-13T04:27:08.468Z,94090.47
2022-11-13T04:29:37.847Z,94083.41
2022-11-13T04:32:07.792Z,94084.28
2022-11-13T04:34:37.092Z,94096.53
2022-11-13T04:37:06.377Z,94099.97
2022-11-13T04:39:35.748Z,94106.28
2022-11-13T04:42:23.648Z,94107.34
2022-11-13T04:44:53.056Z,94108.28
2022-11-13T04:47:22.372Z,94102.09
2022-11-13T04:49:51.828Z,94095.84
2022-11-13T04:52:21.279Z,94085.50
2022-11-13T04:54:50.816Z,94094.97
2022-11-13T04:57:21.575Z,94098.44
2022-11-13T04:59:51.056Z,94101.09
2022-11-13T05:02:20.455Z,94097.66
2022-11-13T05:04:49.809Z,94093.63
2022-11-13T05:07:19.690Z,94095.41
2022-11-13T05:09:49.041Z,94099.75
2022-11-13T05:12:18.463Z,94101.25
2022-11-13T05:14:49.231Z,94107.00
2022-11-13T05:17:18.648Z,94107.06
2022-11-13T05:19:48.065Z,94100.09
2022-11-13T05:22:17.477Z,94104.41
2022-11-13T05:24:46.750Z,94108.84
2022-11-13T05:27:17.750Z,94103.47
2022-11-13T05:29:48.840Z,94104.84
2022-11-13T05:32:18.077Z,94108.19
2022-11-13T05:34:47.405Z,94114.16
2022-11-13T05:37:17.006Z,94118.28
2022-11-13T05:39:46.375Z,94116.47
2022-11-13T05:42:15.588Z,94113.78
2022-11-13T05:44:44.870Z,94116.34
2022-11-13T05:47:15.551Z,94117.13
2022-11-13T05:49:44.856Z,94123.00
2022-11-13T05:52:14.121Z,94128.97
2022-11-13T05:54:43.470Z,94126.16
2022-11-13T05:57:12.940Z,94119.97
2022-11-13T05:59:42.426Z,94126.00
2022-11-13T06:02:11.769Z,94127.75
2022-11-13T06:04:42.531Z,94124.25
2022-11-13T06:07:12.081Z,94112.69
2022-11-13T06:09:42.391Z,94115.91
2022-11-13T06:12:11.677Z,94120.88
2022-11-13T06:14:40.992Z,94117.97
2022-11-13T06:17:10.408Z,94130.53
2022-11-13T06:19:39.882Z,94129.34
2022-11-13T06:22:10.629Z,94134.25
2022-11-13T06:24:39.992Z,94125.19
2022-11-13T06:27:09.330Z,94127.38
2022-11-13T06:29:38.583Z,94125.22
2022-11-13T06:32:08.151Z,94125.59
2022-11-13T06:34:37.528Z,94129.44
2022-11-13T06:37:06.793Z,94136.09
2022-11-13T06:39:37.550Z,94133.22
2022-11-13T06:42:07.163Z,94136.47
2022-11-13T06:44:36.531Z,94133.69
2022-11-13T06:47:06.142Z,94128.38
2022-11-13T06:52:11.798Z,94133.13
2022-11-13T06:54:41.055Z,94120.66
2022-11-13T06:57:10.449Z,94120.38
2022-11-13T06:59:39.881Z,94127.94
2022-11-13T07:02:10.211Z,94114.75
2022-11-13T07:04:39.760Z,94122.31
2022-11-13T07:07:10.604Z,94121.47
2022-11-13T07:09:40.008Z,94123.03
2022-11-13T07:12:09.577Z,94120.16
2022-11-13T07:14:39.019Z,94125.06
2022-11-13T07:17:10.118Z,94122.25
2022-11-13T07:19:40.032Z,94115.09
2022-11-13T07:22:10.757Z,94119.97
2022-11-13T07:24:40.136Z,94124.00
2022-11-13T07:27:09.634Z,94118.53
2022-11-13T07:29:39.320Z,94120.84
2022-11-13T07:32:08.589Z,94117.88
2022-11-13T07:34:38.339Z,94118.34
2022-11-13T07:37:08.069Z,94108.63
2022-11-13T07:39:38.938Z,94108.25
2022-11-13T07:42:08.263Z,94111.44
2022-11-13T07:44:54.241Z,94099.06
2022-11-13T07:47:24.918Z,94108.31
2022-11-13T07:49:59.704Z,94102.00
2022-11-13T07:52:33.075Z,94098.28
2022-11-13T07:55:03.799Z,94101.38
2022-11-13T07:57:33.111Z,94107.13
2022-11-13T08:00:02.320Z,94092.81
2022-11-13T08:02:31.653Z,94096.09
2022-11-13T08:05:00.995Z,94086.34
2022-11-13T08:07:30.398Z,94092.19
2022-11-13T08:09:59.692Z,94088.53
2022-11-13T08:12:30.484Z,94087.28
2022-11-13T08:15:00.356Z,94097.25
2022-11-13T08:17:29.677Z,94097.91
2022-11-13T08:19:58.937Z,94100.44
2022-11-13T08:22:28.311Z,94101.13
2022-11-13T08:24:58.250Z,94096.53
2022-11-13T08:27:28.936Z,94099.84
2022-11-13T08:29:58.264Z,94103.19
2022-11-13T08:32:27.653Z,94103.88
2022-11-13T08:34:56.938Z,94097.75
2022-11-13T08:37:26.290Z,94108.03
2022-11-13T08:39:55.486Z,94107.94
2022-11-13T08:42:24.964Z,94093.84
2022-11-13T08:44:55.901Z,94100.66
2022-11-13T08:47:29.469Z,94110.16
2022-11-13T08:49:59.432Z,94116.84
2022-11-13T08:52:28.936Z,94102.72
2022-11-13T08:54:58.521Z,94100.81
2022-11-13T08:57:28.048Z,94111.00
2022-11-13T08:59:58.911Z,94102.13
2022-11-13T09:02:28.252Z,94111.59
2022-11-13T09:04:57.544Z,94103.75
2022-11-13T09:07:27.652Z,94099.25
2022-11-13T09:09:57.145Z,94091.19
2022-11-13T09:12:26.626Z,94093.56
2022-11-13T09:14:57.361Z,94092.47
2022-11-13T09:17:27.900Z,94091.41
2022-11-13T09:20:00.913Z,94078.84
2022-11-13T09:22:33.206Z,94087.38
2022-11-13T09:25:02.560Z,94083.78
2022-11-13T09:27:32.847Z,94082.75
2022-11-13T09:30:03.681Z,94074.88
2022-11-13T09:32:33.033Z,94076.69
2022-11-13T09:35:33.926Z,94073.34
2022-11-13T09:38:10.440Z,94072.31
2022-11-13T09:40:45.549Z,94075.72
2022-11-13T09:43:28.114Z,94075.38
2022-11-13T09:46:04.545Z,94058.63
2022-11-13T09:52:19.185Z,94054.09
2022-11-13T09:54:48.606Z,94051.31
2022-11-13T09:57:29.819Z,94046.75
2022-11-13T10:00:05.912Z,94045.84
2022-11-13T10:02:52.033Z,94039.69
2022-11-13T10:05:30.715Z,94045.84
2022-11-13T10:08:11.852Z,94040.63
2022-11-13T10:10:55.921Z,94042.75
2022-11-13T10:13:45.706Z,94031.03
2022-11-13T10:16:26.869Z,94038.28
2022-11-13T10:19:00.722Z,94029.00
2022-11-13T10:21:38.843Z,94026.91
2022-11-13T10:24:20.672Z,94022.09
2022-11-13T10:26:50.422Z,94018.28
2022-11-13T10:29:22.025Z,94023.91
2022-11-13T10:31:53.857Z,94016.53
2022-11-13T10:34:23.211Z,94012.66
2022-11-13T10:37:18.183Z,94009.50
2022-11-13T10:39:49.541Z,94008.41
2022-11-13T10:42:30.274Z,94011.78
2022-11-13T10:45:01.830Z,94004.94
2022-11-13T10:48:02.710Z,94009.88
2022-11-13T10:50:27.819Z,94005.13
2022-11-13T10:52:58.908Z,93992.81
2022-11-13T10:55:41.388Z,93988.69
2022-11-13T10:58:20.016Z,93995.78
2022-11-13T11:00:51.334Z,93992.88
2022-11-13T11:03:22.965Z,93991.78
2022-11-13T11:05:59.013Z,93982.16
2022-11-13T11:08:33.911Z,93982.09
2022-11-13T11:11:27.646Z,93980.75
2022-11-13T11:14:13.005Z,93974.69
2022-11-13T11:16:42.906Z,93976.88
2022-11-13T11:19:17.046Z,93967.63
2022-11-13T11:21:47.987Z,93973.16
2022-11-13T11:24:21.912Z,93967.66
2022-11-13T11:27:01.224Z,93960.47
2022-11-13T11:29:36.964Z,93957.00
2022-11-13T11:32:15.721Z,93954.69
2022-11-13T11:34:48.827Z,93952.69
2022-11-13T11:37:21.554Z,93956.25
2022-11-13T11:39:53.409Z,93954.28
2022-11-13T11:42:34.014Z,93943.38
2022-11-13T11:45:17.854Z,93942.16
2022-11-13T11:47:47.443Z,93940.28
2022-11-13T11:50:19.300Z,93940.28
2022-11-13T11:53:04.940Z,93932.72
2022-11-13T11:56:11.790Z,93934.03
2022-11-13T11:59:10.714Z,93922.81
2022-11-13T12:02:02.342Z,93931.22
2022-11-13T12:04:48.006Z,93925.16
2022-11-13T12:07:32.986Z,93928.78
2022-11-13T12:10:27.386Z,93925.16
2022-11-13T12:13:24.439Z,93927.94
2022-11-13T12:16:09.774Z,93922.97
2022-11-13T12:18:52.651Z,93908.97
2022-11-13T12:21:26.368Z,93912.44
2022-11-13T12:24:20.987Z,93911.50
2022-11-13T12:26:59.466Z,93907.31
2022-11-13T12:29:53.390Z,93908.25
2022-11-13T12:32:44.277Z,93908.41
2022-11-13T12:35:20.105Z,93912.97
2022-11-13T12:37:56.149Z,93901.97
2022-11-13T12:40:33.408Z,93897.75
2022-11-13T12:43:32.616Z,93900.47
2022-11-13T12:46:07.508Z,93899.44
2022-11-13T12:52:24.625Z,93900.72
2022-11-13T12:55:04.288Z,93898.28
2022-11-13T12:57:34.250Z,93899.31
2022-11-13T13:00:27.062Z,93897.81
2022-11-13T13:03:32.154Z,93902.47
2022-11-13T13:06:34.713Z,93901.59
2022-11-13T13:09:25.750Z,93894.97
2022-11-13T13:12:07.090Z,93888.25
2022-11-13T13:15:06.511Z,93890.47
2022-11-13T13:17:35.843Z,93889.91
2022-11-13T13:20:29.448Z,93884.09
2022-11-13T13:23:03.811Z,93885.78
2022-11-13T13:25:38.568Z,93887.66
2022-11-13T13:28:21.768Z,93884.09
2022-11-13T13:31:05.261Z,93885.31
2022-11-13T13:33:50.974Z,93886.31
2022-11-13T13:36:31.434Z,93884.91
2022-11-13T13:39:13.262Z,93882.03
2022-11-13T13:42:14.639Z,93885.91
2022-11-13T13:45:25.008Z,93883.50
2022-11-13T13:47:57.788Z,93890.53
2022-11-13T13:50:34.264Z,93888.78
2022-11-13T13:53:04.974Z,93891.56
2022-11-13T13:55:38.238Z,93886.44
2022-11-13T13:58:15.556Z,93883.91
2022-11-13T14:01:05.136Z,93890.31
2022-11-13T14:03:34.790Z,93887.28
2022-11-13T14:06:23.230Z,93885.19
2022-11-13T14:08:52.932Z,93891.56
2022-11-13T14:11:27.262Z,93890.03
2022-11-13T14:14:09.526Z,93893.06
2022-11-13T14:16:50.525Z,93886.63
2022-11-13T14:19:20.815Z,93880.94
2022-11-13T14:21:53.729Z,93890.13
2022-11-13T14:24:34.312Z,93882.75
2022-11-13T14:27:08.175Z,93883.38
2022-11-13T14:29:47.213Z,93881.31
2022-11-13T14:32:22.561Z,93885.19
2022-11-13T14:34:54.470Z,93884.75
2022-11-13T14:37:28.192Z,93882.44
2022-11-13T14:40:00.734Z,93877.53
2022-11-13T14:42:37.470Z,93885.00
2022-11-13T14:45:24.041Z,93878.63
2022-11-13T14:48:02.276Z,93877.47
2022-11-13T14:50:34.479Z,93882.06
2022-11-13T14:53:06.981Z,93882.63
2022-11-13T14:55:40.649Z,93879.81
2022-11-13T14:58:15.410Z,93877.97
2022-11-13T15:00:46.210Z,93875.81
2022-11-13T15:03:15.606Z,93874.31
2022-11-13T15:05:45.339Z,93871.19
2022-11-13T15:08:16.293Z,93868.03
2022-11-13T15:10:45.757Z,93870.13
2022-11-13T15:13:16.432Z,93874.16
2022-11-13T15:15:47.703Z,93874.66
2022-11-13T15:18:20.788Z,93875.69
2022-11-13T15:20:50.290Z,93883.44
2022-11-13T15:23:20.033Z,93881.53
2022-11-13T15:25:49.372Z,93882.22
2022-11-13T15:28:18.743Z,93876.28
2022-11-13T15:30:49.635Z,93874.66
2022-11-13T15:33:19.328Z,93874.94
2022-11-13T15:35:48.610Z,93880.47
2022-11-13T15:38:18.091Z,93877.25
2022-11-13T15:40:47.370Z,93879.84
2022-11-13T15:43:21.942Z,93880.03
2022-11-13T15:45:52.647Z,93880.06
2022-11-13T15:48:22.141Z,93876.91
2022-11-13T15:52:12.193Z,93883.41
2022-11-13T15:54:41.671Z,93884.59
2022-11-13T15:57:20.051Z,93886.75
2022-11-13T15:59:49.360Z,93893.34
2022-11-13T16:02:19.369Z,93888.44
2022-11-13T16:04:56.707Z,93888.53
2022-11-13T16:07:31.874Z,93899.28
2022-11-13T16:10:02.089Z,93895.50
2022-11-13T16:12:31.471Z,93892.13
2022-11-13T16:15:01.054Z,93899.19
2022-11-13T16:17:30.639Z,93897.78
2022-11-13T16:20:00.173Z,93898.19
2022-11-13T16:22:31.192Z,93903.84
2022-11-13T16:25:00.486Z,93898.28
2022-11-13T16:27:32.383Z,93898.50
2022-11-13T16:30:06.577Z,93902.94
2022-11-13T16:32:36.584Z,93910.16
2022-11-13T16:35:06.565Z,93906.72
2022-11-13T16:37:37.324Z,93910.25
2022-11-13T16:40:16.596Z,93915.03
2022-11-13T16:42:45.935Z,93911.19
2022-11-13T16:45:15.358Z,93908.00
2022-11-13T16:47:44.734Z,93910.88
2022-11-13T16:50:20.720Z,93908.53
2022-11-13T16:52:51.601Z,93906.13
2022-11-13T16:55:21.223Z,93910.75
2022-11-13T16:57:50.862Z,93914.53
2022-11-13T17:00:22.063Z,93914.53
2022-11-13T17:02:53.919Z,93906.22
2022-11-13T17:05:25.473Z,93907.25
2022-11-13T17:08:00.556Z,93909.97
2022-11-13T17:10:32.986Z,93909.34
2022-11-13T17:13:02.565Z,93909.44
2022-11-13T17:15:33.758Z,93909.66
2022-11-13T17:18:03.239Z,93902.16
2022-11-13T17:20:32.735Z,93903.75
2022-11-13T17:23:03.590Z,93893.41
2022-11-13T17:25:32.891Z,93893.78
2022-11-13T17:28:02.205Z,93899.31
2022-11-13T17:30:31.470Z,93897.09
2022-11-13T17:33:00.756Z,93904.22
2022-11-13T17:35:30.175Z,93893.97
2022-11-13T17:37:59.712Z,93904.22
2022-11-13T17:40:30.469Z,93902.47
2022-11-13T17:42:59.872Z,93892.94
2022-11-13T17:45:29.292Z,93904.47
2022-11-13T17:47:58.742Z,93902.25
2022-11-13T17:50:28.010Z,93901.59
2022-11-13T17:52:57.533Z,93896.63
2022-11-13T17:55:28.614Z,93894.94
2022-11-13T17:58:01.936Z,93895.09
2022-11-13T18:00:31.802Z,93883.03
2022-11-13T18:03:01.248Z,93888.03
2022-11-13T18:05:30.567Z,93889.06
2022-11-13T18:07:59.953Z,93883.25
2022-11-13T18:10:31.969Z,93882.66
2022-11-13T18:13:01.484Z,93886.84
2022-11-13T18:15:31.018Z,93887.53
2022-11-13T18:18:00.395Z,93881.75
2022-11-13T18:20:29.825Z,93882.13
2022-11-13T18:22:59.475Z,93886.59
2022-11-13T18:25:33.224Z,93885.84
2022-11-13T18:28:04.865Z,93885.63
2022-11-13T18:30:34.298Z,93882.44
2022-11-13T18:33:03.614Z,93877.41
2022-11-13T18:35:33.098Z,93883.56
2022-11-13T18:38:02.542Z,93879.66
2022-11-13T18:40:33.468Z,93877.06
2022-11-13T18:43:02.852Z,93877.09
2022-11-13T18:45:32.356Z,93873.69
2022-11-13T18:48:01.790Z,93875.16
2022-11-13T18:52:11.495Z,93873.13
2022-11-13T18:54:40.837Z,93871.50
2022-11-13T18:57:10.268Z,93877.44
2022-11-13T18:59:39.583Z,93873.88
2022-11-13T19:02:10.180Z,93874.00
2022-11-13T19:04:39.574Z,93873.88
2022-11-13T19:07:12.649Z,93870.09
2022-11-13T19:09:46.173Z,93870.31
2022-11-13T19:12:15.570Z,93870.25
2022-11-13T19:14:44.937Z,93867.06
2022-11-13T19:17:14.504Z,93874.09
2022-11-13T19:19:44.717Z,93874.28
2022-11-13T19:22:15.442Z,93869.13
2022-11-13T19:24:44.716Z,93872.22
2022-11-13T19:27:14.040Z,93854.66
2022-11-13T19:29:43.366Z,93867.53
2022-11-13T19:32:12.717Z,93860.66
2022-11-13T19:34:46.254Z,93859.88
2022-11-13T19:37:19.218Z,93858.25
2022-11-13T19:39:49.305Z,93853.03
2022-11-13T19:42:18.735Z,93857.50
2022-11-13T19:44:48.102Z,93855.13
2022-11-13T19:47:17.479Z,93855.19
2022-11-13T19:49:46.872Z,93849.13
2022-11-13T19:52:17.694Z,93851.00
2022-11-13T19:54:47.050Z,93853.72
2022-11-13T19:57:16.396Z,93844.19
2022-11-13T19:59:45.714Z,93841.53
2022-11-13T20:02:15.643Z,93848.50
2022-11-13T20:04:44.930Z,93845.28
2022-11-13T20:07:14.349Z,93844.53
2022-11-13T20:09:45.142Z,93841.06
2022-11-13T20:12:14.374Z,93843.56
2022-11-13T20:14:43.645Z,93845.44
2022-11-13T20:17:13.033Z,93847.44
2022-11-13T20:19:42.342Z,93845.75
2022-11-13T20:22:14.776Z,93842.47
2022-11-13T20:24:45.628Z,93840.09
2022-11-13T20:27:14.907Z,93845.13
2022-11-13T20:29:44.197Z,93849.38
2022-11-13T20:32:13.509Z,93836.63
2022-11-13T20:34:42.835Z,93845.25
2022-11-13T20:37:12.120Z,93838.28
2022-11-13T20:39:42.134Z,93840.94
2022-11-13T20:42:12.915Z,93834.00
2022-11-13T20:44:42.201Z,93828.75
2022-11-13T20:47:11.660Z,93829.59
2022-11-13T20:49:41.151Z,93831.59
2022-11-13T20:52:11.070Z,93834.31
2022-11-13T20:54:40.668Z,93818.84
2022-11-13T20:57:11.330Z,93823.19
2022-11-13T20:59:40.587Z,93815.47
2022-11-13T21:02:11.314Z,93820.75
2022-11-13T21:04:40.623Z,93819.09
2022-11-13T21:07:10.029Z,93826.00
2022-11-13T21:09:39.398Z,93820.03
2022-11-13T21:12:09.458Z,93812.16
2022-11-13T21:14:40.214Z,93812.84
2022-11-13T21:17:09.640Z,93810.44
2022-11-13T21:19:38.946Z,93812.44
2022-11-13T21:22:08.364Z,93804.53
2022-11-13T21:24:38.159Z,93807.13
2022-11-13T21:27:07.625Z,93811.31
2022-11-13T21:29:38.391Z,93813.13
2022-11-13T21:32:08.439Z,93794.19
2022-11-13T21:34:37.778Z,93808.72
2022-11-13T21:37:08.398Z,93814.94
2022-11-13T21:39:37.870Z,93812.59
2022-11-13T21:42:07.292Z,93808.41
2022-11-13T21:44:36.613Z,93812.69
2022-11-13T21:47:07.397Z,93811.91
2022-11-13T21:52:11.324Z,93813.59
2022-11-13T21:54:42.227Z,93819.44
2022-11-13T21:57:11.524Z,93818.72
2022-11-13T21:59:40.870Z,93818.97
2022-11-13T22:02:12.807Z,93825.16
2022-11-13T22:04:42.218Z,93821.69
2022-11-13T22:07:13.339Z,93817.38
2022-11-13T22:09:42.798Z,93820.66
2022-11-13T22:12:12.563Z,93817.25
2022-11-13T22:14:41.905Z,93816.34
2022-11-13T22:17:11.200Z,93803.47
2022-11-13T22:19:40.624Z,93800.75
2022-11-13T22:22:11.623Z,93801.72
2022-11-13T22:24:40.988Z,93802.63
2022-11-13T22:27:10.258Z,93801.91
2022-11-13T22:29:39.677Z,93794.38
2022-11-13T22:32:09.101Z,93797.00
2022-11-13T22:34:38.443Z,93794.19
2022-11-13T22:37:07.893Z,93790.72
2022-11-13T22:39:38.857Z,93785.69
2022-11-13T22:42:08.238Z,93778.81
2022-11-13T22:44:54.892Z,93782.28
2022-11-13T22:47:25.636Z,93777.19
2022-11-13T22:49:54.963Z,93777.28
2022-11-13T22:52:24.204Z,93774.16
2022-11-13T22:54:55.324Z,93771.56
2022-11-13T22:57:24.756Z,93762.19
2022-11-13T22:59:54.139Z,93757.03
2022-11-13T23:02:23.432Z,93760.31
2022-11-13T23:04:52.753Z,93758.66
2022-11-13T23:07:22.254Z,93762.31
2022-11-13T23:09:51.661Z,93762.38
2022-11-13T23:12:22.650Z,93760.63
2022-11-13T23:14:52.003Z,93753.72
2022-11-13T23:17:21.248Z,93751.88
2022-11-13T23:19:50.769Z,93758.66
2022-11-13T23:22:20.111Z,93753.50
2022-11-13T23:24:49.553Z,93753.31
2022-11-13T23:27:20.564Z,93741.22
2022-11-13T23:29:50.477Z,93741.28
2022-11-13T23:32:19.996Z,93751.63
2022-11-13T23:35:04.186Z,93750.09
2022-11-13T23:37:33.542Z,93745.00
2022-11-13T23:40:02.818Z,93738.13
2022-11-13T23:42:54.264Z,93739.09
2022-11-13T23:45:23.061Z,93737.47
2022-11-13T23:47:52.493Z,93734.97
2022-11-13T23:50:22.162Z,93736.75
2022-11-13T23:52:51.787Z,93734.97
2022-11-13T23:55:21.749Z,93732.41
2022-11-13T23:57:59.533Z,93735.81
